createdAt,value
2023-02-19T00:01:23.485Z,22.11
2023-02-19T00:06:26.718Z,22.04
2023-02-19T00:11:29.920Z,22.07
2023-02-19T00:16:32.968Z,22.14
2023-02-19T00:21:34.381Z,22.17
2023-02-19T00:26:35.767Z,22.13
2023-02-19T00:31:40.283Z,22.12
2023-02-19T00:36:42.150Z,22.08
2023-02-19T00:41:44.118Z,22.09
2023-02-19T00:46:46.670Z,22.16
2023-02-19T00:51:48.148Z,22.18
2023-02-19T00:56:49.837Z,22.16
2023-02-19T01:01:51.285Z,22.13
2023-02-19T01:06:52.722Z,22.06
2023-02-19T01:11:54.151Z,22.11
2023-02-19T01:16:55.541Z,22.14
2023-02-19T01:21:56.956Z,22.15
2023-02-19T01:26:58.481Z,22.12
2023-02-19T01:31:59.996Z,22.08
2023-02-19T01:37:01.981Z,22.07
2023-02-19T01:42:04.034Z,22.13
2023-02-19T01:47:05.423Z,22.19
2023-02-19T01:52:13.712Z,22.17
2023-02-19T01:57:22.655Z,22.16
2023-02-19T02:02:28.310Z,22.09
2023-02-19T02:07:48.374Z,22.11
2023-02-19T02:12:50.943Z,22.19
2023-02-19T02:18:11.934Z,22.19
2023-02-19T02:23:51.628Z,22.17
2023-02-19T02:29:19.978Z,22.11
2023-02-19T02:34:25.106Z,22.09
2023-02-19T02:39:27.123Z,22.12
2023-02-19T02:44:34.762Z,22.19
2023-02-19T02:49:56.083Z,22.19
2023-02-19T02:55:03.269Z,22.14
2023-02-19T03:00:04.927Z,22.12
2023-02-19T03:05:27.012Z,22.09
2023-02-19T03:10:33.311Z,22.14
2023-02-19T03:15:56.219Z,22.20
2023-02-19T03:20:58.336Z,22.16
2023-02-19T03:26:05.319Z,22.11
2023-02-19T03:31:06.711Z,22.09
2023-02-19T03:36:08.222Z,22.14
2023-02-19T03:41:22.196Z,22.21
2023-02-19T03:46:36.122Z,22.18
2023-02-19T03:51:40.239Z,22.13
2023-02-19T03:57:02.163Z,22.10
2023-02-19T04:02:09.744Z,22.12
2023-02-19T04:07:11.133Z,22.15
2023-02-19T04:12:12.612Z,22.17
2023-02-19T04:17:20.124Z,22.19
2023-02-19T04:22:21.984Z,22.11
2023-02-19T04:27:23.380Z,22.11
2023-02-19T04:32:24.756Z,22.15
2023-02-19T04:37:26.148Z,22.20
2023-02-19T04:42:27.605Z,22.21
2023-02-19T04:47:29.013Z,22.16
2023-02-19T04:52:30.456Z,22.11
2023-02-19T04:57:31.838Z,22.15
2023-02-19T05:02:33.210Z,22.18
2023-02-19T05:07:34.595Z,22.20
2023-02-19T05:12:35.964Z,22.18
2023-02-19T05:17:37.716Z,22.13
2023-02-19T05:22:39.087Z,22.13
2023-02-19T05:27:40.484Z,22.21
2023-02-19T05:32:41.855Z,22.23
2023-02-19T05:37:43.247Z,22.20
2023-02-19T05:42:44.611Z,22.18
2023-02-19T05:47:46.011Z,22.16
2023-02-19T05:52:47.384Z,22.18
2023-02-19T05:57:48.845Z,22.19
2023-02-19T06:02:50.258Z,22.23
2023-02-19T06:07:51.690Z,22.20
2023-02-19T06:12:53.490Z,22.16
2023-02-19T06:17:54.891Z,22.14
2023-02-19T06:22:57.736Z,22.16
2023-02-19T06:27:59.142Z,22.23
2023-02-19T06:33:00.517Z,22.20
2023-02-19T06:38:03.197Z,22.19
2023-02-19T06:43:04.564Z,22.14
2023-02-19T06:48:06.027Z,22.15
2023-02-19T06:53:08.887Z,22.21
2023-02-19T06:58:10.275Z,22.24
2023-02-19T07:03:11.660Z,22.23
2023-02-19T07:08:13.114Z,22.18
2023-02-19T07:13:14.478Z,22.16
2023-02-19T07:18:15.849Z,22.21
2023-02-19T07:23:17.219Z,22.24
2023-02-19T07:28:18.635Z,22.24
2023-02-19T07:33:20.003Z,22.21
2023-02-19T07:38:22.358Z,22.17
2023-02-19T07:43:24.503Z,22.15
2023-02-19T07:48:25.996Z,22.21
2023-02-19T07:53:28.001Z,22.21
2023-02-19T07:58:29.706Z,22.20
2023-02-19T08:03:31.111Z,22.15
2023-02-19T08:08:32.535Z,22.13
2023-02-19T08:13:34.185Z,22.16
2023-02-19T08:18:35.576Z,22.21
2023-02-19T08:23:36.948Z,22.20
2023-02-19T08:28:38.345Z,22.17
2023-02-19T08:33:39.875Z,22.13
2023-02-19T08:38:41.259Z,22.14
2023-02-19T08:43:42.706Z,22.20
2023-02-19T08:48:44.197Z,22.21
2023-02-19T08:53:45.570Z,22.19
2023-02-19T08:58:47.450Z,22.11
2023-02-19T09:03:48.911Z,22.11
2023-02-19T09:08:50.304Z,22.19
2023-02-19T09:13:51.768Z,22.19
2023-02-19T09:18:53.140Z,22.15
2023-02-19T09:23:54.506Z,22.10
2023-02-19T09:28:55.968Z,22.16
2023-02-19T09:33:57.366Z,22.19
2023-02-19T09:39:00.436Z,22.22
2023-02-19T09:44:02.707Z,22.21
2023-02-19T09:49:11.378Z,22.16
2023-02-19T09:54:19.886Z,22.18
2023-02-19T09:59:24.680Z,22.23
2023-02-19T10:04:26.117Z,22.24
2023-02-19T10:09:29.542Z,22.22
2023-02-19T10:14:39.929Z,22.18
2023-02-19T10:19:41.309Z,22.22
2023-02-19T10:24:42.774Z,22.28
2023-02-19T10:29:44.618Z,22.31
2023-02-19T10:34:46.050Z,22.26
2023-02-19T10:39:47.922Z,22.23
2023-02-19T10:45:01.766Z,22.27
2023-02-19T10:50:04.688Z,22.30
2023-02-19T10:55:29.435Z,22.34
2023-02-19T11:00:30.906Z,22.28
2023-02-19T11:05:32.289Z,22.27
2023-02-19T11:10:38.568Z,22.28
2023-02-19T11:15:39.942Z,22.34
2023-02-19T11:21:06.212Z,22.35
2023-02-19T11:26:20.996Z,22.33
2023-02-19T11:31:27.744Z,22.27
2023-02-19T11:36:31.149Z,22.28
2023-02-19T11:41:45.033Z,22.33
2023-02-19T11:47:16.435Z,22.34
2023-02-19T11:52:31.325Z,22.28
2023-02-19T11:57:52.372Z,22.29
2023-02-19T12:03:14.993Z,22.32
2023-02-19T12:08:50.146Z,22.37
2023-02-19T12:14:16.168Z,22.32
2023-02-19T12:19:48.478Z,22.28
2023-02-19T12:24:59.787Z,22.27
2023-02-19T12:30:10.046Z,22.31
2023-02-19T12:35:35.530Z,22.34
2023-02-19T12:40:50.006Z,22.27
2023-02-19T12:45:55.417Z,22.28
2023-02-19T12:50:58.931Z,22.30
2023-02-19T12:56:00.730Z,22.33
2023-02-19T13:01:02.141Z,22.34
2023-02-19T13:06:21.593Z,22.32
2023-02-19T13:11:35.726Z,22.28
2023-02-19T13:16:38.150Z,22.31
2023-02-19T13:21:58.104Z,22.31
2023-02-19T13:27:22.630Z,22.35
2023-02-19T13:32:52.532Z,22.33
2023-02-19T13:37:54.415Z,22.29
2023-02-19T13:42:59.830Z,22.31
2023-02-19T13:48:12.781Z,22.35
2023-02-19T13:53:45.004Z,22.34
2023-02-19T13:59:18.918Z,22.33
2023-02-19T14:04:24.476Z,22.30
2023-02-19T14:09:39.759Z,22.31
2023-02-19T14:14:42.388Z,22.34
2023-02-19T14:19:50.736Z,22.36
2023-02-19T14:24:53.202Z,22.35
2023-02-19T14:29:54.592Z,22.29
2023-02-19T14:34:57.970Z,22.30
2023-02-19T14:39:59.374Z,22.34
2023-02-19T14:45:02.212Z,22.37
2023-02-19T14:50:06.459Z,22.36
2023-02-19T14:55:24.997Z,22.33
2023-02-19T15:00:31.696Z,22.29
2023-02-19T15:05:34.784Z,22.35
2023-02-19T15:10:36.181Z,22.38
2023-02-19T15:15:40.592Z,22.37
2023-02-19T15:20:41.988Z,22.35
2023-02-19T15:25:43.379Z,22.33
2023-02-19T15:30:44.756Z,22.34
2023-02-19T15:35:53.708Z,22.39
2023-02-19T15:40:57.680Z,22.37
2023-02-19T15:46:03.827Z,22.35
2023-02-19T15:51:09.167Z,22.32
2023-02-19T15:56:15.003Z,22.31
2023-02-19T16:01:28.573Z,22.37
2023-02-19T16:06:30.459Z,22.35
2023-02-19T16:11:39.695Z,22.33
2023-02-19T16:16:41.608Z,22.33
2023-02-19T16:21:43.256Z,22.31
2023-02-19T16:26:44.846Z,22.37
2023-02-19T16:31:50.771Z,22.37
2023-02-19T16:36:52.192Z,22.33
2023-02-19T16:41:59.506Z,22.32
2023-02-19T16:47:07.004Z,22.31
2023-02-19T16:52:12.035Z,22.39
2023-02-19T16:57:13.407Z,22.39
2023-02-19T17:02:16.947Z,22.37
2023-02-19T17:07:18.643Z,22.32
2023-02-19T17:12:20.149Z,22.32
2023-02-19T17:17:21.538Z,22.36
2023-02-19T17:22:22.924Z,22.38
2023-02-19T17:27:24.313Z,22.34
2023-02-19T17:32:25.778Z,22.30
2023-02-19T17:37:27.247Z,22.30
2023-02-19T17:42:28.623Z,22.35
2023-02-19T17:47:30.014Z,22.37
2023-02-19T17:52:31.387Z,22.34
2023-02-19T17:57:33.796Z,22.31
2023-02-19T18:02:35.879Z,22.34
2023-02-19T18:07:38.321Z,22.39
2023-02-19T18:12:40.007Z,22.38
2023-02-19T18:17:41.378Z,22.36
2023-02-19T18:22:42.858Z,22.33
2023-02-19T18:27:44.247Z,22.31
2023-02-19T18:32:47.941Z,22.37
2023-02-19T18:37:53.080Z,22.38
2023-02-19T18:42:54.456Z,22.36
2023-02-19T18:47:55.843Z,22.29
2023-02-19T18:52:57.215Z,22.31
2023-02-19T18:57:58.578Z,22.38
2023-02-19T19:03:00.057Z,22.38
2023-02-19T19:08:01.733Z,22.36
2023-02-19T19:13:03.150Z,22.30
2023-02-19T19:18:04.829Z,22.32
2023-02-19T19:23:06.266Z,22.37
2023-02-19T19:28:07.640Z,22.38
2023-02-19T19:33:09.169Z,22.35
2023-02-19T19:38:10.559Z,22.31
2023-02-19T19:43:12.453Z,22.30
2023-02-19T19:48:13.920Z,22.38
2023-02-19T19:53:15.299Z,22.36
2023-02-19T19:58:20.698Z,22.34
2023-02-19T20:03:22.194Z,22.30
2023-02-19T20:08:23.619Z,22.35
2023-02-19T20:13:26.340Z,22.38
2023-02-19T20:18:28.143Z,22.39
2023-02-19T20:23:29.847Z,22.34
2023-02-19T20:28:31.767Z,22.33
2023-02-19T20:33:33.254Z,22.36
2023-02-19T20:38:34.635Z,22.40
2023-02-19T20:43:36.254Z,22.39
2023-02-19T20:48:37.660Z,22.30
2023-02-19T20:53:40.575Z,22.30
2023-02-19T20:58:42.957Z,22.37
2023-02-19T21:03:44.373Z,22.40
2023-02-19T21:08:45.751Z,22.39
2023-02-19T21:13:47.607Z,22.35
2023-02-19T21:18:49.088Z,22.34
2023-02-19T21:23:51.619Z,22.39
2023-02-19T21:28:53.178Z,22.41
2023-02-19T21:33:54.552Z,22.37
2023-02-19T21:38:55.957Z,22.34
2023-02-19T21:43:57.392Z,22.33
2023-02-19T21:48:58.930Z,22.40
2023-02-19T21:54:00.303Z,22.39
2023-02-19T21:59:01.742Z,22.35
2023-02-19T22:04:03.155Z,22.36
2023-02-19T22:09:04.543Z,22.36
2023-02-19T22:14:05.932Z,22.42
2023-02-19T22:19:07.303Z,22.37
2023-02-19T22:24:14.051Z,22.35
2023-02-19T22:29:15.442Z,22.32
2023-02-19T22:34:16.926Z,22.38
2023-02-19T22:39:20.446Z,22.41
2023-02-19T22:44:22.004Z,22.34
2023-02-19T22:49:23.519Z,22.34
2023-02-19T22:54:26.899Z,22.35
2023-02-19T22:59:28.410Z,22.41
2023-02-19T23:04:29.885Z,22.41
2023-02-19T23:09:31.278Z,22.40
2023-02-19T23:14:32.680Z,22.32
2023-02-19T23:19:34.054Z,22.36
2023-02-19T23:24:35.684Z,22.39
2023-02-19T23:29:37.118Z,22.44
2023-02-19T23:34:38.490Z,22.40
2023-02-19T23:39:39.899Z,22.36
2023-02-19T23:44:41.267Z,22.37
2023-02-19T23:49:42.638Z,22.43
2023-02-19T23:54:44.030Z,22.42
2023-02-19T23:59:47.103Z,22.38
